Time;durP1;ratioP1;P1;durP2;ratioP2;P2;SDS_P1;SDS_P2;PMS_P1;PMS_P2;Temp;Humidity;BMP_temperature;BMP_pressure;BME280_temperature;BME280_humidity;BME280_pressure;Samples;Min_cycle;Max_cycle;Signal;HPM_P1;HPM_P2
2021/09/26 00:01:45;;;;;;;1.42;1.30;;;16.80;49.60;;;;;;5074489;28;20655;-59
2021/09/26 00:04:15;;;;;;;1.60;1.33;;;16.80;49.60;;;;;;5074433;28;20254;-61
2021/09/26 00:06:47;;;;;;;1.67;1.42;;;16.80;49.60;;;;;;5074083;28;20286;-54
2021/09/26 00:09:18;;;;;;;1.20;1.10;;;16.80;49.70;;;;;;5073697;28;20250;-56
2021/09/26 00:11:48;;;;;;;1.70;1.33;;;16.80;49.70;;;;;;5074194;28;20237;-57
2021/09/26 00:14:19;;;;;;;1.77;1.20;;;16.80;49.60;;;;;;5074383;28;20282;-58
2021/09/26 00:16:49;;;;;;;2.22;1.40;;;16.80;49.60;;;;;;5073361;28;20458;-61
2021/09/26 00:19:19;;;;;;;1.48;1.30;;;16.80;49.70;;;;;;5073599;28;20242;-55
2021/09/26 00:21:52;;;;;;;1.40;1.23;;;16.80;49.60;;;;;;5073667;28;20234;-59
2021/09/26 00:24:22;;;;;;;1.88;1.20;;;16.80;49.60;;;;;;5073890;28;20231;-62
2021/09/26 00:26:53;;;;;;;1.75;1.40;;;16.80;49.60;;;;;;5073987;28;20234;-57
2021/09/26 00:29:23;;;;;;;2.33;1.48;;;16.80;49.60;;;;;;5073815;28;20283;-61
2021/09/26 00:31:53;;;;;;;2.00;1.20;;;16.80;49.60;;;;;;5073513;28;20198;-61
2021/09/26 00:34:24;;;;;;;1.20;1.10;;;16.80;49.70;;;;;;5073459;28;20238;-61
2021/09/26 00:36:56;;;;;;;1.67;1.00;;;16.80;49.60;;;;;;5073728;28;20194;-57
2021/09/26 00:39:27;;;;;;;2.92;1.38;;;16.80;49.70;;;;;;5074003;28;20261;-62
2021/09/26 00:41:57;;;;;;;1.42;1.30;;;16.80;49.70;;;;;;5073682;28;20631;-61
2021/09/26 00:44:27;;;;;;;2.83;1.30;;;16.80;49.60;;;;;;5073828;28;20279;-62
2021/09/26 00:46:58;;;;;;;1.60;1.25;;;16.80;49.60;;;;;;5073763;28;20186;-61
2021/09/26 00:49:28;;;;;;;2.13;1.65;;;16.80;49.70;;;;;;5073388;28;20254;-60
2021/09/26 00:52:01;;;;;;;1.20;1.10;;;16.70;49.60;;;;;;5073319;28;20203;-62
2021/09/26 00:54:31;;;;;;;3.10;1.80;;;16.70;49.70;;;;;;5089161;22;20242;-49
2021/09/26 00:57:01;;;;;;;1.73;1.40;;;16.70;49.70;;;;;;5073135;28;20195;-49
2021/09/26 00:59:32;;;;;;;1.33;1.23;;;16.80;49.80;;;;;;5072857;28;20242;-48
2021/09/26 01:02:02;;;;;;;1.50;1.40;;;16.70;49.70;;;;;;5073173;28;20239;-48
2021/09/26 01:04:33;;;;;;;2.22;2.03;;;16.80;49.70;;;;;;5071875;28;20306;-50
2021/09/26 01:07:10;;;;;;;1.80;1.58;;;16.70;49.70;;;;;;5071702;28;20629;-49
2021/09/26 01:09:43;;;;;;;1.73;1.63;;;16.80;49.80;;;;;;5072472;28;20658;-48
2021/09/26 01:12:17;;;;;;;2.33;2.10;;;16.70;49.70;;;;;;5070983;28;20230;-53
2021/09/26 01:14:51;;;;;;;2.20;1.85;;;16.80;49.80;;;;;;5066215;28;20227;-49
2021/09/26 01:17:24;;;;;;;2.10;1.90;;;16.80;49.90;;;;;;5052372;28;20732;-53
2021/09/26 01:20:14;;;;;;;2.03;1.85;;;16.80;49.90;;;;;;5051966;28;20222;-47
2021/09/26 01:23:09;;;;;;;2.42;2.22;;;16.70;49.90;;;;;;5058628;28;20230;-51
2021/09/26 01:25:53;;;;;;;2.20;2.00;;;16.80;49.90;;;;;;5071721;28;20258;-48
2021/09/26 01:28:53;;;;;;;2.65;2.25;;;16.80;50.50;;;;;;5072420;28;20713;-46
2021/09/26 01:31:27;;;;;;;4.00;2.10;;;16.70;49.90;;;;;;5064586;28;20195;-48
2021/09/26 01:34:00;;;;;;;2.00;1.60;;;16.80;49.90;;;;;;5071292;28;20242;-47
2021/09/26 01:36:31;;;;;;;2.92;2.10;;;16.80;49.90;;;;;;5068995;28;20230;-48
2021/09/26 01:39:03;;;;;;;2.00;1.80;;;16.70;49.90;;;;;;5051848;28;20707;-49
2021/09/26 01:41:36;;;;;;;2.47;1.90;;;16.70;49.90;;;;;;5051418;28;20238;-47
2021/09/26 01:44:07;;;;;;;1.92;1.70;;;16.70;49.90;;;;;;5087689;28;20236;-48
2021/09/26 01:46:42;;;;;;;2.70;2.20;;;16.70;49.90;;;;;;5091463;28;20810;-49
2021/09/26 01:49:15;;;;;;;2.72;1.77;;;16.70;49.90;;;;;;5091941;28;20581;-47
2021/09/26 01:51:45;;;;;;;2.00;1.90;;;16.70;49.90;;;;;;5091265;28;20669;-48
2021/09/26 01:54:16;;;;;;;2.25;1.90;;;16.80;49.90;;;;;;5053864;28;20246;-47
2021/09/26 01:56:46;;;;;;;2.28;1.92;;;16.70;49.90;;;;;;5051071;28;20227;-47
2021/09/26 01:59:18;;;;;;;1.83;1.70;;;16.70;49.90;;;;;;5051387;28;20258;-49
2021/09/26 02:01:50;;;;;;;2.25;1.83;;;16.80;50.00;;;;;;5051232;28;20630;-49
2021/09/26 02:04:21;;;;;;;2.33;2.10;;;16.70;49.90;;;;;;5070373;28;20283;-47
2021/09/26 02:06:52;;;;;;;2.00;1.80;;;16.70;49.90;;;;;;5071365;28;20199;-49
2021/09/26 02:09:22;;;;;;;1.92;1.83;;;16.70;49.90;;;;;;5065337;28;20246;-48
2021/09/26 02:11:53;;;;;;;2.13;1.85;;;16.70;49.90;;;;;;5071257;28;20568;-48
2021/09/26 02:14:25;;;;;;;2.63;2.03;;;16.70;50.00;;;;;;5049515;28;20237;-49
2021/09/26 02:16:58;;;;;;;2.15;1.95;;;16.70;50.00;;;;;;5051066;28;20199;-49
2021/09/26 02:19:28;;;;;;;1.95;1.80;;;16.70;50.00;;;;;;5049758;28;20258;-49
2021/09/26 02:21:59;;;;;;;2.05;1.85;;;16.70;50.00;;;;;;5050060;28;20531;-49
2021/09/26 02:24:29;;;;;;;2.25;1.92;;;16.70;50.10;;;;;;5083810;28;20242;-49
2021/09/26 02:27:00;;;;;;;2.13;1.80;;;16.70;50.00;;;;;;5070469;28;20199;-48
2021/09/26 02:29:30;;;;;;;2.22;2.03;;;16.70;50.10;;;;;;5070143;28;20716;-46
2021/09/26 02:32:02;;;;;;;2.20;2.00;;;16.70;50.10;;;;;;5069923;28;20505;-51
2021/09/26 02:34:33;;;;;;;2.10;1.90;;;16.70;50.10;;;;;;5070103;28;20735;-47
2021/09/26 02:37:03;;;;;;;2.47;1.98;;;16.70;50.10;;;;;;5060352;28;20289;-50
2021/09/26 02:39:34;;;;;;;2.30;2.10;;;16.70;50.20;;;;;;5051221;28;20679;-47
2021/09/26 02:42:06;;;;;;;2.25;1.83;;;16.70;50.20;;;;;;5051427;28;20594;-47
2021/09/26 02:44:41;;;;;;;1.75;1.65;;;16.70;50.10;;;;;;5090501;28;20247;-47
2021/09/26 02:47:17;;;;;;;2.33;1.80;;;16.70;50.10;;;;;;5091110;28;20201;-48
2021/09/26 02:49:47;;;;;;;2.08;1.85;;;16.70;50.10;;;;;;5050249;28;20227;-49
2021/09/26 02:52:17;;;;;;;2.22;1.90;;;16.70;50.10;;;;;;5056298;28;20199;-49
2021/09/26 02:54:48;;;;;;;2.20;2.00;;;16.70;50.10;;;;;;5089747;22;20226;-61
2021/09/26 02:57:18;;;;;;;2.00;1.80;;;16.60;50.10;;;;;;5070630;28;20230;-61
2021/09/26 02:59:49;;;;;;;1.92;1.77;;;16.60;50.10;;;;;;5070087;28;20507;-61
2021/09/26 03:02:21;;;;;;;2.20;2.00;;;16.60;50.20;;;;;;5073557;28;20225;-61
2021/09/26 03:04:51;;;;;;;1.88;1.70;;;16.60;50.20;;;;;;5090156;28;20225;-61
2021/09/26 03:07:22;;;;;;;2.00;1.80;;;16.70;50.20;;;;;;5086668;28;20681;-58
2021/09/26 03:09:52;;;;;;;2.08;1.88;;;16.70;50.30;;;;;;5068193;28;20607;-57
2021/09/26 03:12:23;;;;;;;2.08;1.88;;;16.70;50.30;;;;;;5073492;28;20226;-57
2021/09/26 03:14:54;;;;;;;2.08;1.92;;;16.70;50.50;;;;;;5090096;28;20229;-60
2021/09/26 03:17:26;;;;;;;2.30;2.10;;;16.70;50.30;;;;;;5089699;28;20293;-60
2021/09/26 03:19:56;;;;;;;2.20;1.80;;;16.70;50.30;;;;;;5090836;28;20233;-60
2021/09/26 03:22:27;;;;;;;2.30;2.08;;;16.70;50.30;;;;;;5080918;28;20598;-61
2021/09/26 03:24:57;;;;;;;1.77;1.67;;;16.70;50.30;;;;;;5089856;28;20617;-59
2021/09/26 03:27:28;;;;;;;1.92;1.75;;;16.70;50.30;;;;;;5090197;28;20320;-57
2021/09/26 03:29:58;;;;;;;1.73;1.45;;;16.70;50.30;;;;;;5091191;28;20285;-56
2021/09/26 03:32:31;;;;;;;1.50;1.40;;;16.70;50.30;;;;;;5093029;28;20273;-56
2021/09/26 03:35:01;;;;;;;2.28;1.67;;;16.70;50.30;;;;;;5094669;28;20230;-58
2021/09/26 03:37:31;;;;;;;2.10;1.90;;;16.70;50.30;;;;;;5073185;28;20241;-60
2021/09/26 03:40:02;;;;;;;2.33;1.80;;;16.70;50.30;;;;;;5090083;28;20336;-60
2021/09/26 03:42:32;;;;;;;1.60;1.50;;;16.60;50.20;;;;;;5093747;28;20195;-58
2021/09/26 03:45:03;;;;;;;1.70;1.60;;;16.70;50.30;;;;;;5089702;28;20285;-53
2021/09/26 03:47:35;;;;;;;1.95;1.75;;;16.70;50.50;;;;;;5093514;28;20225;-61
2021/09/26 03:50:06;;;;;;;3.38;1.73;;;16.70;50.80;;;;;;5091579;28;20221;-59
2021/09/26 03:52:37;;;;;;;2.20;2.00;;;16.70;51.10;;;;;;5085349;28;20747;-58
2021/09/26 03:55:08;;;;;;;2.67;1.60;;;16.70;51.20;;;;;;5083120;28;20199;-62
2021/09/26 03:57:38;;;;;;;2.53;1.75;;;16.70;51.10;;;;;;5093718;28;20736;-57
2021/09/26 04:00:09;;;;;;;1.73;1.40;;;16.70;51.30;;;;;;5094195;28;20692;-61
2021/09/26 04:02:42;;;;;;;2.70;1.60;;;16.80;51.60;;;;;;5086887;28;20195;-61
2021/09/26 04:05:12;;;;;;;1.88;1.67;;;16.80;51.70;;;;;;5073604;28;20226;-57
2021/09/26 04:07:43;;;;;;;2.00;1.80;;;16.80;51.60;;;;;;5076102;28;20301;-61
2021/09/26 04:10:14;;;;;;;2.13;1.80;;;16.80;51.50;;;;;;5072499;28;20242;-58
2021/09/26 04:12:45;;;;;;;1.92;1.70;;;16.80;51.50;;;;;;5071907;28;20674;-57
2021/09/26 04:15:15;;;;;;;1.92;1.73;;;16.80;51.40;;;;;;5083265;28;20472;-61
2021/09/26 04:17:47;;;;;;;2.35;1.67;;;16.80;51.30;;;;;;5093456;28;20249;-61
2021/09/26 04:20:18;;;;;;;1.77;1.67;;;16.80;51.30;;;;;;5070458;28;20235;-61
2021/09/26 04:22:48;;;;;;;1.90;1.70;;;16.80;51.20;;;;;;5053472;28;20203;-61
2021/09/26 04:25:19;;;;;;;1.70;1.60;;;16.80;51.10;;;;;;5073465;28;20226;-53
2021/09/26 04:27:49;;;;;;;2.08;1.85;;;16.80;51.10;;;;;;5087847;28;20254;-61
2021/09/26 04:30:20;;;;;;;1.90;1.70;;;16.80;51.10;;;;;;5072635;28;20231;-61
2021/09/26 04:32:52;;;;;;;2.10;1.90;;;16.80;51.10;;;;;;5072852;28;20230;-61
2021/09/26 04:35:22;;;;;;;1.92;1.83;;;16.80;51.00;;;;;;5073927;28;20278;-58
2021/09/26 04:37:53;;;;;;;1.88;1.70;;;16.80;51.00;;;;;;5072442;28;20246;-61
2021/09/26 04:40:24;;;;;;;2.33;2.13;;;16.80;51.00;;;;;;5072715;28;20202;-57
2021/09/26 04:42:54;;;;;;;2.60;1.95;;;16.80;51.00;;;;;;5071101;28;20230;-60
2021/09/26 04:45:25;;;;;;;2.03;1.90;;;16.80;50.90;;;;;;5083564;28;20617;-61
2021/09/26 04:47:57;;;;;;;2.33;2.13;;;16.80;50.90;;;;;;5072254;28;20301;-59
2021/09/26 04:50:27;;;;;;;2.40;2.03;;;16.80;50.90;;;;;;5073324;28;20230;-49
2021/09/26 04:52:58;;;;;;;2.40;2.20;;;16.70;50.80;;;;;;5068841;28;20239;-51
2021/09/26 04:55:28;;;;;;;2.22;2.03;;;16.70;51.20;;;;;;5072478;28;20242;-61
2021/09/26 04:57:59;;;;;;;2.35;2.10;;;16.70;50.80;;;;;;5070857;28;20257;-52
2021/09/26 05:00:30;;;;;;;2.42;2.10;;;16.80;50.80;;;;;;5058220;28;20191;-59
2021/09/26 05:03:02;;;;;;;1.95;1.75;;;16.80;50.80;;;;;;5070264;28;20241;-59
2021/09/26 05:05:32;;;;;;;2.47;2.28;;;16.70;50.80;;;;;;5070823;28;20264;-51
2021/09/26 05:08:03;;;;;;;2.33;2.13;;;16.70;50.80;;;;;;5068604;28;20316;-58
2021/09/26 05:10:33;;;;;;;2.20;1.90;;;16.70;50.80;;;;;;5070999;28;20233;-54
2021/09/26 05:13:04;;;;;;;2.03;1.90;;;16.80;50.90;;;;;;5069359;28;20222;-62
2021/09/26 05:15:34;;;;;;;2.35;2.15;;;16.80;50.90;;;;;;5073518;28;20286;-58
2021/09/26 05:18:07;;;;;;;2.50;2.20;;;16.70;50.80;;;;;;5068266;28;20294;-64
2021/09/26 05:20:37;;;;;;;2.30;2.10;;;16.80;50.80;;;;;;5070369;28;20222;-60
2021/09/26 05:23:07;;;;;;;2.25;2.05;;;16.70;50.80;;;;;;5068759;28;20274;-61
2021/09/26 05:25:38;;;;;;;2.75;2.53;;;16.70;50.70;;;;;;5073378;28;20586;-57
2021/09/26 05:28:08;;;;;;;2.20;2.00;;;16.70;50.70;;;;;;5074038;28;20436;-61
2021/09/26 05:30:39;;;;;;;2.40;2.17;;;16.70;50.70;;;;;;5093158;28;20233;-61
2021/09/26 05:33:11;;;;;;;1.95;1.85;;;16.70;50.80;;;;;;5081847;28;20245;-61
2021/09/26 05:35:42;;;;;;;1.92;1.73;;;16.70;50.80;;;;;;5072543;28;20241;-61
2021/09/26 05:38:12;;;;;;;2.50;2.30;;;16.70;50.70;;;;;;5072288;28;20242;-62
2021/09/26 05:40:43;;;;;;;2.33;2.13;;;16.70;50.80;;;;;;5072717;28;20241;-62
2021/09/26 05:43:13;;;;;;;2.88;1.88;;;16.60;50.80;;;;;;5072459;28;20195;-62
2021/09/26 05:45:43;;;;;;;2.15;2.00;;;16.60;50.80;;;;;;5072121;28;20226;-62
2021/09/26 05:48:16;;;;;;;2.45;2.20;;;16.70;50.90;;;;;;5072471;28;20246;-62
2021/09/26 05:50:46;;;;;;;2.30;2.10;;;16.70;50.90;;;;;;5072389;28;20230;-61
2021/09/26 05:53:17;;;;;;;2.17;1.98;;;16.70;50.90;;;;;;5071463;28;20230;-54
2021/09/26 05:55:47;;;;;;;2.90;2.08;;;16.60;50.80;;;;;;5072386;28;20237;-62
2021/09/26 05:58:18;;;;;;;2.30;2.10;;;16.60;50.80;;;;;;5072234;28;20239;-63
2021/09/26 06:00:48;;;;;;;2.42;1.73;;;16.70;50.90;;;;;;5072042;28;20238;-60
2021/09/26 06:03:20;;;;;;;2.35;2.15;;;16.60;50.80;;;;;;5071889;28;20241;-62
2021/09/26 06:05:51;;;;;;;2.38;2.17;;;16.60;50.90;;;;;;5071879;28;20289;-58
2021/09/26 06:08:26;;;;;;;2.13;1.85;;;16.60;50.80;;;;;;5071794;28;20258;-59
2021/09/26 06:10:56;;;;;;;1.70;1.60;;;16.60;50.90;;;;;;5071417;28;20305;-60
2021/09/26 06:13:27;;;;;;;2.17;2.00;;;16.60;51.00;;;;;;5071919;28;20365;-59
2021/09/26 06:15:59;;;;;;;1.90;1.80;;;16.60;51.00;;;;;;5071874;28;20230;-63
2021/09/26 06:18:31;;;;;;;2.15;1.88;;;16.50;51.00;;;;;;5071281;28;20214;-60
2021/09/26 06:21:01;;;;;;;2.83;2.30;;;16.50;51.00;;;;;;5071038;28;20565;-62
2021/09/26 06:23:32;;;;;;;2.17;1.98;;;16.60;50.90;;;;;;5067612;28;20900;-56
2021/09/26 06:26:02;;;;;;;2.00;1.80;;;16.50;50.90;;;;;;5070724;28;20662;-62
2021/09/26 06:28:33;;;;;;;2.40;2.10;;;16.50;50.90;;;;;;5071063;28;20578;-59
2021/09/26 06:31:03;;;;;;;2.85;2.00;;;16.60;51.00;;;;;;5071235;28;20709;-56
2021/09/26 06:33:35;;;;;;;2.47;1.95;;;16.50;50.90;;;;;;5071595;28;20654;-46
2021/09/26 06:36:06;;;;;;;2.10;1.85;;;16.50;51.00;;;;;;5071576;28;20237;-55
2021/09/26 06:38:36;;;;;;;1.92;1.73;;;16.50;50.90;;;;;;5071464;28;20246;-53
2021/09/26 06:41:07;;;;;;;2.08;1.85;;;16.50;50.90;;;;;;5071210;28;20914;-47
2021/09/26 06:43:41;;;;;;;1.85;1.75;;;16.60;50.90;;;;;;5070031;28;20278;-62
2021/09/26 06:46:11;;;;;;;3.05;2.10;;;16.50;50.90;;;;;;5060020;28;20700;-54
2021/09/26 06:48:44;;;;;;;2.08;1.88;;;16.50;50.90;;;;;;5058898;28;20231;-59
2021/09/26 06:51:15;;;;;;;2.38;1.90;;;16.50;50.90;;;;;;5051540;28;20282;-55
2021/09/26 06:53:47;;;;;;;2.83;2.10;;;16.50;50.90;;;;;;5051759;28;20287;-53
2021/09/26 06:56:17;;;;;;;2.60;2.00;;;16.50;50.90;;;;;;5051306;28;20245;-57
2021/09/26 06:58:48;;;;;;;2.63;1.75;;;16.50;50.90;;;;;;5051128;28;20320;-53
2021/09/26 07:01:18;;;;;;;2.10;1.90;;;16.50;50.90;;;;;;5051318;28;20629;-58
2021/09/26 07:03:50;;;;;;;2.25;2.05;;;16.40;50.80;;;;;;5063971;28;20628;-58
2021/09/26 07:06:21;;;;;;;1.88;1.50;;;16.50;50.90;;;;;;5070257;28;20254;-59
2021/09/26 07:08:51;;;;;;;2.47;1.70;;;16.40;50.90;;;;;;5067510;28;20206;-63
2021/09/26 07:11:22;;;;;;;2.53;2.28;;;16.50;51.10;;;;;;5071280;28;20697;-63
2021/09/26 07:13:52;;;;;;;1.98;1.70;;;16.40;51.20;;;;;;5071252;28;21305;-59
2021/09/26 07:16:23;;;;;;;3.28;1.50;;;16.40;51.40;;;;;;5071404;28;20256;-61
2021/09/26 07:18:55;;;;;;;2.10;1.90;;;16.40;51.50;;;;;;5070587;28;20225;-57
2021/09/26 07:21:26;;;;;;;2.03;1.77;;;16.40;51.50;;;;;;5070376;28;20658;-59
2021/09/26 07:23:56;;;;;;;2.17;1.98;;;16.50;51.40;;;;;;5070157;28;20234;-61
2021/09/26 07:26:26;;;;;;;1.80;1.65;;;16.40;51.40;;;;;;5070387;28;20265;-54
2021/09/26 07:28:57;;;;;;;2.08;1.88;;;16.40;51.30;;;;;;5071493;28;20267;-61
2021/09/26 07:31:27;;;;;;;1.90;1.80;;;16.40;51.30;;;;;;5071434;28;20234;-61
2021/09/26 07:34:00;;;;;;;3.67;1.73;;;16.40;51.30;;;;;;5071613;28;20238;-60
2021/09/26 07:36:30;;;;;;;1.63;1.40;;;16.40;51.30;;;;;;5070619;28;20296;-61
2021/09/26 07:39:00;;;;;;;1.88;1.48;;;16.30;51.20;;;;;;5089018;28;20245;-56
2021/09/26 07:41:31;;;;;;;1.65;1.50;;;16.30;51.20;;;;;;5089547;28;20251;-62
2021/09/26 07:44:02;;;;;;;2.55;1.40;;;16.30;51.20;;;;;;5091045;28;20587;-60
2021/09/26 07:46:32;;;;;;;3.17;1.35;;;16.30;51.30;;;;;;5088305;28;20728;-61
2021/09/26 07:49:05;;;;;;;2.40;1.40;;;16.30;51.30;;;;;;5049730;28;20247;-62
2021/09/26 07:51:35;;;;;;;1.55;1.42;;;16.30;51.30;;;;;;5057169;28;20285;-62
2021/09/26 07:54:06;;;;;;;2.10;1.45;;;16.20;51.20;;;;;;5069975;28;20226;-61
2021/09/26 07:56:36;;;;;;;1.70;1.30;;;16.20;51.20;;;;;;5070152;28;20234;-60
2021/09/26 07:59:07;;;;;;;1.88;1.40;;;16.20;51.30;;;;;;5090080;28;20250;-61
2021/09/26 08:01:37;;;;;;;2.83;1.52;;;16.20;51.20;;;;;;5090631;28;20234;-62
2021/09/26 08:04:10;;;;;;;1.58;1.48;;;16.20;51.30;;;;;;5070186;28;20203;-60
2021/09/26 08:06:40;;;;;;;2.38;1.50;;;16.20;51.30;;;;;;5070627;28;20250;-59
2021/09/26 08:09:10;;;;;;;1.60;1.20;;;16.20;51.30;;;;;;5089442;28;20293;-62
2021/09/26 08:11:41;;;;;;;2.65;1.50;;;16.20;51.30;;;;;;5090298;28;20234;-61
2021/09/26 08:14:11;;;;;;;2.63;1.70;;;16.10;51.30;;;;;;5089021;28;20217;-59
2021/09/26 08:16:42;;;;;;;1.30;1.20;;;16.10;51.30;;;;;;5091286;28;20256;-59
2021/09/26 08:19:14;;;;;;;1.60;1.15;;;16.10;51.30;;;;;;5092808;28;20273;-58
2021/09/26 08:21:44;;;;;;;1.75;1.45;;;16.10;51.30;;;;;;5092648;28;20221;-62
2021/09/26 08:24:15;;;;;;;1.60;1.50;;;16.10;51.30;;;;;;5093183;28;20226;-57
2021/09/26 08:26:45;;;;;;;1.30;1.20;;;16.10;51.30;;;;;;5071924;28;20309;-61
2021/09/26 08:29:16;;;;;;;1.67;1.30;;;16.10;51.30;;;;;;5093159;28;20257;-56
2021/09/26 08:31:46;;;;;;;1.67;1.30;;;16.10;51.30;;;;;;5077986;28;20234;-62
2021/09/26 08:34:18;;;;;;;1.70;1.60;;;16.10;51.30;;;;;;5052922;28;20219;-61
2021/09/26 08:36:49;;;;;;;1.65;1.55;;;16.10;51.30;;;;;;5056849;28;20294;-61
2021/09/26 08:39:19;;;;;;;2.22;1.52;;;16.00;51.30;;;;;;5092903;28;20260;-60
2021/09/26 08:41:52;;;;;;;1.50;1.40;;;16.00;51.30;;;;;;5087255;28;20238;-61
2021/09/26 08:44:24;;;;;;;1.55;1.40;;;16.00;51.30;;;;;;5071459;28;20194;-55
2021/09/26 08:46:55;;;;;;;1.60;1.25;;;16.00;51.30;;;;;;5057377;28;20656;-61
2021/09/26 08:49:27;;;;;;;2.00;1.35;;;16.00;51.30;;;;;;5092657;28;20229;-60
2021/09/26 08:51:58;;;;;;;1.60;1.20;;;16.00;51.30;;;;;;5092738;28;20665;-58
2021/09/26 08:54:28;;;;;;;1.23;1.13;;;16.00;51.30;;;;;;5093041;28;20275;-57
2021/09/26 08:56:59;;;;;;;1.48;1.25;;;16.00;51.30;;;;;;5092168;28;20241;-58
2021/09/26 08:59:29;;;;;;;2.25;1.33;;;16.00;51.30;;;;;;5092113;28;20260;-52
2021/09/26 09:02:00;;;;;;;1.30;1.20;;;16.00;51.30;;;;;;5075568;28;20227;-59
2021/09/26 09:04:43;;;;;;;2.72;1.30;;;16.00;51.30;;;;;;5072234;28;20238;-58
2021/09/26 09:07:14;;;;;;;1.90;1.30;;;16.00;51.30;;;;;;5071866;28;20304;-62
2021/09/26 09:09:52;;;;;;;1.35;1.13;;;15.90;51.20;;;;;;5072643;28;20205;-62
2021/09/26 09:12:28;;;;;;;1.25;1.02;;;15.90;51.20;;;;;;5073182;28;20578;-62
2021/09/26 09:14:59;;;;;;;1.10;0.98;;;15.90;51.20;;;;;;5055811;28;20248;-62
2021/09/26 09:17:31;;;;;;;2.08;1.20;;;15.90;51.20;;;;;;5072926;28;20245;-64
2021/09/26 09:20:18;;;;;;;1.30;1.20;;;15.90;51.30;;;;;;5072942;28;20244;-64
2021/09/26 09:22:51;;;;;;;1.30;1.10;;;15.90;51.30;;;;;;5072177;28;20256;-59
2021/09/26 09:25:35;;;;;;;1.52;1.40;;;15.90;51.30;;;;;;5073579;28;20239;-56
2021/09/26 09:28:06;;;;;;;1.15;1.05;;;15.90;51.30;;;;;;5072684;28;20230;-63
2021/09/26 09:30:37;;;;;;;1.70;1.25;;;15.90;51.30;;;;;;5072808;28;20195;-62
2021/09/26 09:33:07;;;;;;;1.27;1.17;;;15.80;51.20;;;;;;5073225;28;20293;-64
2021/09/26 09:35:44;;;;;;;2.08;1.30;;;15.80;51.30;;;;;;5072625;28;20623;-62
2021/09/26 09:38:15;;;;;;;1.58;1.40;;;15.80;51.30;;;;;;5072353;28;20241;-57
2021/09/26 09:40:46;;;;;;;2.03;1.30;;;15.80;51.30;;;;;;5070621;28;20241;-57
2021/09/26 09:43:16;;;;;;;1.20;1.00;;;15.80;51.20;;;;;;5072313;28;20409;-60
2021/09/26 09:45:50;;;;;;;1.38;1.20;;;15.80;51.30;;;;;;5072952;28;20238;-54
2021/09/26 09:48:21;;;;;;;1.52;1.13;;;15.80;51.30;;;;;;5072444;28;20310;-54
2021/09/26 09:50:58;;;;;;;1.60;1.20;;;15.80;51.30;;;;;;5069573;28;20237;-62
2021/09/26 09:53:48;;;;;;;1.33;1.23;;;15.80;51.20;;;;;;5061562;28;20720;-57
2021/09/26 09:56:20;;;;;;;1.88;1.33;;;15.70;51.20;;;;;;5065616;28;20223;-55
2021/09/26 09:58:51;;;;;;;1.50;1.40;;;15.70;51.20;;;;;;5071522;28;20242;-62
2021/09/26 10:01:26;;;;;;;1.70;1.15;;;15.80;51.20;;;;;;5068657;28;20600;-57
2021/09/26 10:03:56;;;;;;;1.95;1.20;;;15.70;51.20;;;;;;5070952;28;20281;-59
2021/09/26 10:06:37;;;;;;;1.67;1.08;;;15.70;51.20;;;;;;5067435;28;20264;-59
2021/09/26 10:09:22;;;;;;;1.60;1.30;;;15.70;51.20;;;;;;5070880;28;20214;-61
2021/09/26 10:11:53;;;;;;;1.10;0.98;;;15.70;51.20;;;;;;5071059;28;20253;-58
2021/09/26 10:14:24;;;;;;;1.38;1.27;;;15.70;51.80;;;;;;5071041;28;20214;-56
2021/09/26 10:16:55;;;;;;;1.25;1.00;;;15.70;51.20;;;;;;5069285;28;20226;-62
2021/09/26 10:19:25;;;;;;;1.58;1.45;;;15.70;51.20;;;;;;5062547;28;20261;-52
2021/09/26 10:21:58;;;;;;;1.65;1.15;;;15.60;51.20;;;;;;5060087;28;20218;-62
2021/09/26 10:24:29;;;;;;;1.38;1.20;;;15.60;51.20;;;;;;5062277;28;20225;-60
2021/09/26 10:27:00;;;;;;;1.20;1.10;;;15.60;51.20;;;;;;5061737;28;20219;-61
2021/09/26 10:29:31;;;;;;;1.25;1.15;;;15.60;51.20;;;;;;5059906;28;20226;-61
2021/09/26 10:32:02;;;;;;;2.38;1.10;;;15.60;51.20;;;;;;5063000;28;20190;-62
2021/09/26 10:34:33;;;;;;;1.13;1.02;;;15.60;51.20;;;;;;5063050;28;20226;-61
2021/09/26 10:37:05;;;;;;;1.02;0.98;;;15.60;51.10;;;;;;5062216;28;20229;-62
2021/09/26 10:39:35;;;;;;;1.90;1.65;;;15.60;51.10;;;;;;5061926;28;20238;-62
2021/09/26 10:42:07;;;;;;;2.55;1.40;;;15.60;51.10;;;;;;5061419;28;20279;-58
2021/09/26 10:44:40;;;;;;;1.55;1.35;;;15.50;51.10;;;;;;5059761;28;20240;-56
2021/09/26 10:47:15;;;;;;;1.23;1.13;;;15.50;51.10;;;;;;5059913;28;20721;-55
2021/09/26 10:49:46;;;;;;;1.52;1.42;;;15.50;51.10;;;;;;5061922;28;20202;-62
2021/09/26 10:52:43;;;;;;;2.20;1.45;;;15.50;51.10;;;;;;5056510;28;20238;-60
2021/09/26 10:55:33;;;;;;;1.50;1.40;;;15.50;51.10;;;;;;5051273;28;20213;-60
2021/09/26 10:58:24;;;;;;;3.33;1.80;;;15.50;51.10;;;;;;5067453;28;20290;-60
2021/09/26 11:01:01;;;;;;;2.83;1.60;;;15.40;51.00;;;;;;5069111;28;20242;-61
2021/09/26 11:03:41;;;;;;;2.17;1.60;;;15.40;51.00;;;;;;5068371;28;20235;-59
2021/09/26 11:06:28;;;;;;;1.60;1.50;;;15.40;51.00;;;;;;5068190;28;20194;-64
2021/09/26 11:09:01;;;;;;;2.42;1.80;;;15.40;51.10;;;;;;5069293;28;20768;-61
2021/09/26 11:11:41;;;;;;;2.75;1.48;;;15.40;51.10;;;;;;5060289;28;20618;-64
2021/09/26 11:14:11;;;;;;;1.70;1.40;;;15.40;51.10;;;;;;5068685;28;20218;-64
2021/09/26 11:16:57;;;;;;;2.50;1.83;;;15.40;51.10;;;;;;5070087;28;20226;-60
2021/09/26 11:19:28;;;;;;;1.83;1.40;;;15.30;51.10;;;;;;5067919;28;20246;-64
2021/09/26 11:22:02;;;;;;;2.05;1.60;;;15.30;51.10;;;;;;5069770;28;20249;-55
2021/09/26 11:24:45;;;;;;;2.85;1.90;;;15.30;51.10;;;;;;5069782;28;20269;-64
2021/09/26 11:27:21;;;;;;;3.72;1.65;;;15.30;51.10;;;;;;5068277;28;20218;-61
2021/09/26 11:30:18;;;;;;;1.85;1.65;;;15.30;51.10;;;;;;5068149;28;20236;-63
2021/09/26 11:33:05;;;;;;;1.45;1.35;;;15.30;51.20;;;;;;5067758;28;20256;-60
2021/09/26 11:35:37;;;;;;;1.88;1.30;;;15.20;51.10;;;;;;5068997;28;20238;-62
2021/09/26 11:38:09;;;;;;;1.58;1.23;;;15.20;51.10;;;;;;5067560;28;20307;-61
2021/09/26 11:41:17;;;;;;;3.53;1.83;;;15.20;51.10;;;;;;5069364;28;20225;-48
2021/09/26 11:44:03;;;;;;;2.25;1.88;;;15.20;51.10;;;;;;5062725;28;20281;-60
2021/09/26 11:46:33;;;;;;;2.03;1.60;;;15.20;51.10;;;;;;5067840;28;20540;-64
2021/09/26 11:49:05;;;;;;;2.08;1.67;;;15.20;51.10;;;;;;5067188;28;20264;-63
2021/09/26 11:51:35;;;;;;;2.40;1.52;;;15.20;51.10;;;;;;5072180;28;20237;-63
2021/09/26 11:54:05;;;;;;;2.00;1.80;;;15.20;51.10;;;;;;5074631;28;20234;-63
2021/09/26 11:56:36;;;;;;;2.45;1.80;;;15.20;51.10;;;;;;5074457;28;20230;-64
2021/09/26 11:59:09;;;;;;;1.63;1.52;;;15.10;51.10;;;;;;5074353;28;20261;-61
2021/09/26 12:01:40;;;;;;;2.33;1.63;;;15.10;51.10;;;;;;5074581;28;20248;-58
2021/09/26 12:04:18;;;;;;;2.17;1.80;;;15.10;51.10;;;;;;5074307;28;20238;-56
2021/09/26 12:06:50;;;;;;;1.88;1.33;;;15.10;51.10;;;;;;5074536;28;20203;-61
2021/09/26 12:09:40;;;;;;;2.13;1.63;;;15.10;51.10;;;;;;5073803;28;20258;-61
2021/09/26 12:12:12;;;;;;;1.88;1.55;;;15.10;51.10;;;;;;5073534;28;20266;-62
2021/09/26 12:14:45;;;;;;;2.08;1.30;;;15.10;51.10;;;;;;5074134;28;20227;-63
2021/09/26 12:17:16;;;;;;;1.92;1.50;;;15.10;51.10;;;;;;5073933;28;20230;-61
2021/09/26 12:19:46;;;;;;;2.17;1.92;;;15.00;51.00;;;;;;5074296;28;20234;-64
2021/09/26 12:22:17;;;;;;;2.40;1.70;;;15.00;51.00;;;;;;5074422;28;20252;-59
2021/09/26 12:24:53;;;;;;;1.95;1.38;;;15.00;51.10;;;;;;5073845;28;20670;-63
2021/09/26 12:27:30;;;;;;;2.53;1.40;;;15.00;51.10;;;;;;5073759;28;20195;-61
2021/09/26 12:30:02;;;;;;;2.42;1.65;;;15.00;51.00;;;;;;5073613;28;20218;-64
2021/09/26 12:32:33;;;;;;;2.22;1.60;;;15.00;51.10;;;;;;5073821;28;20248;-60
2021/09/26 12:35:05;;;;;;;2.53;1.83;;;15.00;51.00;;;;;;5073441;28;20234;-61
2021/09/26 12:37:36;;;;;;;1.90;1.58;;;15.00;51.00;;;;;;5069765;28;20618;-63
2021/09/26 12:40:12;;;;;;;2.15;1.92;;;15.00;51.00;;;;;;5073561;28;20195;-61
2021/09/26 12:42:49;;;;;;;3.25;1.80;;;15.00;51.10;;;;;;5073541;28;20241;-63
2021/09/26 12:45:21;;;;;;;1.63;1.52;;;14.90;51.10;;;;;;5073335;28;20281;-60
2021/09/26 12:47:53;;;;;;;2.05;1.52;;;14.90;51.00;;;;;;5073121;28;20257;-60
2021/09/26 12:50:23;;;;;;;2.33;1.50;;;14.90;51.10;;;;;;5073511;28;20602;-63
2021/09/26 12:52:54;;;;;;;2.58;1.80;;;14.90;51.00;;;;;;5072394;28;20655;-63
2021/09/26 12:55:28;;;;;;;2.15;1.25;;;14.80;51.00;;;;;;5071494;28;20234;-61
2021/09/26 12:57:58;;;;;;;1.85;1.38;;;14.80;51.00;;;;;;5072838;28;20264;-61
2021/09/26 13:00:34;;;;;;;4.13;1.70;;;14.80;51.00;;;;;;5072750;28;20231;-57
2021/09/26 13:03:05;;;;;;;1.30;1.20;;;14.80;51.00;;;;;;5072066;28;20233;-62
2021/09/26 13:05:36;;;;;;;2.60;1.73;;;14.80;51.00;;;;;;5072968;28;20222;-61
2021/09/26 13:08:08;;;;;;;1.50;1.40;;;14.80;51.00;;;;;;5073150;28;20265;-63
2021/09/26 13:10:42;;;;;;;1.95;1.75;;;14.80;51.00;;;;;;5073357;28;20273;-63
2021/09/26 13:13:17;;;;;;;1.70;1.60;;;14.80;51.00;;;;;;5073131;28;20226;-60
2021/09/26 13:15:48;;;;;;;2.35;1.70;;;14.70;51.00;;;;;;5072377;28;20316;-64